Messwerte Iwojima

Temperatur

Temperatur
°C
1617962400 19.00 19.00
1617966000 20.00 20.00
1617969600 21.00 21.00 23
1617973200 22.00 22.00
1617976800 23.00 23.00
1617980400 0.00 0.00 23
1617984000 1.00 1.00
1617987600 2.00 2.00
1617991200 3.00 3.00 23
1617994800 4.00 4.00
1617998400 5.00 5.00 23
1618002000 6.00 6.00 23
1618005600 7.00 7.00 22
1618009200 8.00 8.00 22
1618012800 9.00 9.00 22
1618016400 10.00 10.00 22
1618020000 11.00 11.00 23
1618023600 12.00 12.00 24
1618027200 13.00 13.00 23
1618030800 14.00 14.00 23
1618034400 15.00 15.00 22
1618038000 16.00 16.00 22
1618041600 17.00 17.00 22
1618045200 18.00 18.00 22

Aktuellste Messwerte

Wettercharakter
Wetter: Wolkenfelder, kaum Regen
Temperatur
22 °C
Feuchtigkeit
90 %
Wind
35 km/hWindrichtung: Nordost
Luftdruck
1016 hPa
Messzeit: 10. April 2021, 18.00Datenquelle: METAR

Wind

Windrichtung Böen Mittelwind
° km/h km/h
1617962400 19.00 18.00 - 19.00
1617966000 20.00 19.00 - 20.00
1617969600 21.00 20.00 - 21.00 90° 30
1617973200 22.00 21.00 - 22.00
1617976800 23.00 22.00 - 23.00
1617980400 0.00 23.00 - 0.00 80° 30
1617984000 1.00 0.00 - 1.00
1617987600 2.00 1.00 - 2.00
1617991200 3.00 2.00 - 3.00 70° 30
1617994800 4.00 3.00 - 4.00
1617998400 5.00 4.00 - 5.00 80° 30
1618002000 6.00 5.00 - 6.00 80° 30
1618005600 7.00 6.00 - 7.00 70° 45 30
1618009200 8.00 7.00 - 8.00 60° 30
1618012800 9.00 8.00 - 9.00 50° 30
1618016400 10.00 9.00 - 10.00 70° 30
1618020000 11.00 10.00 - 11.00 70° 35
1618023600 12.00 11.00 - 12.00 70° 35
1618027200 13.00 12.00 - 13.00 70° 50 30
1618030800 14.00 13.00 - 14.00 70° 55 35
1618034400 15.00 14.00 - 15.00 60° 60 35
1618038000 16.00 15.00 - 16.00 60° 55 35
1618041600 17.00 16.00 - 17.00 60° 30
1618045200 18.00 17.00 - 18.00 50° 35

Ihre Wetterstation

Fehlt Ihre Wetterstation auf unserem Portal?

Schreiben Sie an network@meteonews.ch